sensor_id;sensor_type;location;lat;lon;timestamp;temperature;humidity
26703;DHT22;14316;51.074;3.704;2023-11-21T00:00:34;8.50;99.90
26703;DHT22;14316;51.074;3.704;2023-11-21T00:02:59;8.50;99.90
26703;DHT22;14316;51.074;3.704;2023-11-21T00:05:26;8.50;99.90
26703;DHT22;14316;51.074;3.704;2023-11-21T00:07:52;8.50;99.90
26703;DHT22;14316;51.074;3.704;2023-11-21T00:10:17;8.50;99.90
26703;DHT22;14316;51.074;3.704;2023-11-21T00:12:43;8.60;99.90
26703;DHT22;14316;51.074;3.704;2023-11-21T00:15:10;8.60;99.90
26703;DHT22;14316;51.074;3.704;2023-11-21T00:17:38;8.60;99.90
26703;DHT22;14316;51.074;3.704;2023-11-21T00:20:07;8.60;99.90
26703;DHT22;14316;51.074;3.704;2023-11-21T00:22:36;8.60;99.90
26703;DHT22;14316;51.074;3.704;2023-11-21T00:25:02;8.60;99.90
26703;DHT22;14316;51.074;3.704;2023-11-21T00:27:30;8.70;99.90
26703;DHT22;14316;51.074;3.704;2023-11-21T00:29:56;8.60;99.90
26703;DHT22;14316;51.074;3.704;2023-11-21T00:32:22;8.70;99.90
26703;DHT22;14316;51.074;3.704;2023-11-21T00:34:48;8.60;99.90
26703;DHT22;14316;51.074;3.704;2023-11-21T00:37:14;8.70;99.90
26703;DHT22;14316;51.074;3.704;2023-11-21T00:39:40;8.60;99.90
26703;DHT22;14316;51.074;3.704;2023-11-21T00:42:07;8.60;99.90
26703;DHT22;14316;51.074;3.704;2023-11-21T00:44:34;8.70;99.90
26703;DHT22;14316;51.074;3.704;2023-11-21T00:47:00;8.70;99.90
26703;DHT22;14316;51.074;3.704;2023-11-21T00:49:26;8.60;99.90
26703;DHT22;14316;51.074;3.704;2023-11-21T00:51:53;8.70;99.90
26703;DHT22;14316;51.074;3.704;2023-11-21T00:54:19;8.70;99.90
26703;DHT22;14316;51.074;3.704;2023-11-21T00:56:45;8.70;99.90
26703;DHT22;14316;51.074;3.704;2023-11-21T00:59:13;8.70;99.90
26703;DHT22;14316;51.074;3.704;2023-11-21T01:01:39;8.70;99.90
26703;DHT22;14316;51.074;3.704;2023-11-21T01:04:05;8.70;99.90
26703;DHT22;14316;51.074;3.704;2023-11-21T01:06:32;8.70;99.90
26703;DHT22;14316;51.074;3.704;2023-11-21T01:08:58;8.70;99.90
26703;DHT22;14316;51.074;3.704;2023-11-21T01:11:24;8.70;99.90
26703;DHT22;14316;51.074;3.704;2023-11-21T01:13:50;8.70;99.90
26703;DHT22;14316;51.074;3.704;2023-11-21T01:16:16;8.70;99.90
26703;DHT22;14316;51.074;3.704;2023-11-21T01:18:42;8.70;99.90
26703;DHT22;14316;51.074;3.704;2023-11-21T01:21:09;8.80;99.90
26703;DHT22;14316;51.074;3.704;2023-11-21T01:23:35;8.80;99.90
26703;DHT22;14316;51.074;3.704;2023-11-21T01:26:01;8.90;99.90
26703;DHT22;14316;51.074;3.704;2023-11-21T01:28:26;8.90;99.90
26703;DHT22;14316;51.074;3.704;2023-11-21T01:30:53;8.90;99.90
26703;DHT22;14316;51.074;3.704;2023-11-21T01:33:22;8.90;99.90
26703;DHT22;14316;51.074;3.704;2023-11-21T01:35:51;9.00;99.90
26703;DHT22;14316;51.074;3.704;2023-11-21T01:38:18;8.90;99.90
26703;DHT22;14316;51.074;3.704;2023-11-21T01:40:44;8.90;99.90
26703;DHT22;14316;51.074;3.704;2023-11-21T01:43:10;8.90;99.90
26703;DHT22;14316;51.074;3.704;2023-11-21T01:45:36;8.80;99.90
26703;DHT22;14316;51.074;3.704;2023-11-21T01:48:02;8.80;99.90
26703;DHT22;14316;51.074;3.704;2023-11-21T01:50:29;8.90;99.90
26703;DHT22;14316;51.074;3.704;2023-11-21T01:52:55;8.90;99.90
26703;DHT22;14316;51.074;3.704;2023-11-21T01:55:22;8.90;99.90
26703;DHT22;14316;51.074;3.704;2023-11-21T01:57:48;8.90;99.90
26703;DHT22;14316;51.074;3.704;2023-11-21T02:00:14;8.90;99.90
26703;DHT22;14316;51.074;3.704;2023-11-21T02:02:45;9.00;99.90
26703;DHT22;14316;51.074;3.704;2023-11-21T02:05:13;8.90;99.90
26703;DHT22;14316;51.074;3.704;2023-11-21T02:07:41;8.90;99.90
26703;DHT22;14316;51.074;3.704;2023-11-21T02:10:08;8.90;99.90
26703;DHT22;14316;51.074;3.704;2023-11-21T02:12:35;8.90;99.90
26703;DHT22;14316;51.074;3.704;2023-11-21T02:15:04;9.00;99.90
26703;DHT22;14316;51.074;3.704;2023-11-21T02:17:35;9.00;99.90
26703;DHT22;14316;51.074;3.704;2023-11-21T02:20:02;9.00;99.90
26703;DHT22;14316;51.074;3.704;2023-11-21T02:22:31;9.00;99.90
26703;DHT22;14316;51.074;3.704;2023-11-21T02:24:58;8.90;99.90
26703;DHT22;14316;51.074;3.704;2023-11-21T02:27:24;8.90;99.90
26703;DHT22;14316;51.074;3.704;2023-11-21T02:29:50;8.90;99.90
26703;DHT22;14316;51.074;3.704;2023-11-21T02:32:16;8.90;99.90
26703;DHT22;14316;51.074;3.704;2023-11-21T02:34:48;8.90;99.90
26703;DHT22;14316;51.074;3.704;2023-11-21T02:37:15;9.00;99.90
26703;DHT22;14316;51.074;3.704;2023-11-21T02:39:41;9.00;99.90
26703;DHT22;14316;51.074;3.704;2023-11-21T02:42:07;8.90;99.90
26703;DHT22;14316;51.074;3.704;2023-11-21T02:44:33;8.90;99.90
26703;DHT22;14316;51.074;3.704;2023-11-21T02:47:00;9.00;99.90
26703;DHT22;14316;51.074;3.704;2023-11-21T02:49:26;9.00;99.90
26703;DHT22;14316;51.074;3.704;2023-11-21T02:51:55;8.90;99.90
26703;DHT22;14316;51.074;3.704;2023-11-21T02:54:21;8.90;99.90
26703;DHT22;14316;51.074;3.704;2023-11-21T02:56:49;8.90;99.90
26703;DHT22;14316;51.074;3.704;2023-11-21T02:59:16;8.90;99.90
26703;DHT22;14316;51.074;3.704;2023-11-21T03:01:42;8.90;99.90
26703;DHT22;14316;51.074;3.704;2023-11-21T03:04:08;9.00;99.90
26703;DHT22;14316;51.074;3.704;2023-11-21T03:06:33;9.00;99.90
26703;DHT22;14316;51.074;3.704;2023-11-21T03:08:59;9.00;99.90
26703;DHT22;14316;51.074;3.704;2023-11-21T03:11:26;9.00;99.90
26703;DHT22;14316;51.074;3.704;2023-11-21T03:13:52;9.00;99.90
26703;DHT22;14316;51.074;3.704;2023-11-21T03:16:18;9.00;99.90
26703;DHT22;14316;51.074;3.704;2023-11-21T03:18:44;9.10;99.90
26703;DHT22;14316;51.074;3.704;2023-11-21T03:21:10;9.10;99.90
26703;DHT22;14316;51.074;3.704;2023-11-21T03:23:37;9.10;99.90
26703;DHT22;14316;51.074;3.704;2023-11-21T03:26:03;9.10;99.90
26703;DHT22;14316;51.074;3.704;2023-11-21T03:28:29;9.10;99.90
26703;DHT22;14316;51.074;3.704;2023-11-21T03:30:55;9.10;99.90
26703;DHT22;14316;51.074;3.704;2023-11-21T03:33:22;9.10;99.90
26703;DHT22;14316;51.074;3.704;2023-11-21T03:35:48;9.10;99.90
26703;DHT22;14316;51.074;3.704;2023-11-21T03:38:15;9.10;99.90
26703;DHT22;14316;51.074;3.704;2023-11-21T03:40:41;9.10;99.90
26703;DHT22;14316;51.074;3.704;2023-11-21T03:43:07;9.10;99.90
26703;DHT22;14316;51.074;3.704;2023-11-21T03:45:33;9.10;99.90
26703;DHT22;14316;51.074;3.704;2023-11-21T03:47:59;9.10;99.90
26703;DHT22;14316;51.074;3.704;2023-11-21T03:50:28;9.20;99.90
26703;DHT22;14316;51.074;3.704;2023-11-21T03:52:54;9.20;99.90
26703;DHT22;14316;51.074;3.704;2023-11-21T03:55:20;9.10;99.90
26703;DHT22;14316;51.074;3.704;2023-11-21T03:57:46;9.10;99.90
26703;DHT22;14316;51.074;3.704;2023-11-21T04:00:12;9.10;99.90
26703;DHT22;14316;51.074;3.704;2023-11-21T04:02:38;9.10;99.90
26703;DHT22;14316;51.074;3.704;2023-11-21T04:05:05;9.10;99.90
26703;DHT22;14316;51.074;3.704;2023-11-21T04:07:32;9.10;99.90
26703;DHT22;14316;51.074;3.704;2023-11-21T04:09:59;9.20;99.90
26703;DHT22;14316;51.074;3.704;2023-11-21T04:12:25;9.20;99.90
26703;DHT22;14316;51.074;3.704;2023-11-21T04:14:51;9.20;99.90
26703;DHT22;14316;51.074;3.704;2023-11-21T04:17:19;9.20;99.90
26703;DHT22;14316;51.074;3.704;2023-11-21T04:19:46;9.20;99.90
26703;DHT22;14316;51.074;3.704;2023-11-21T04:22:12;9.20;99.90
26703;DHT22;14316;51.074;3.704;2023-11-21T04:24:38;9.30;99.90
26703;DHT22;14316;51.074;3.704;2023-11-21T04:27:04;9.30;99.90
26703;DHT22;14316;51.074;3.704;2023-11-21T04:29:30;9.40;99.90
26703;DHT22;14316;51.074;3.704;2023-11-21T04:31:56;9.50;99.90
26703;DHT22;14316;51.074;3.704;2023-11-21T04:34:22;9.40;99.90
26703;DHT22;14316;51.074;3.704;2023-11-21T04:36:50;9.40;99.90
26703;DHT22;14316;51.074;3.704;2023-11-21T04:39:16;9.50;99.90
26703;DHT22;14316;51.074;3.704;2023-11-21T04:41:41;9.60;99.90
26703;DHT22;14316;51.074;3.704;2023-11-21T04:44:08;9.60;99.90
26703;DHT22;14316;51.074;3.704;2023-11-21T04:46:34;9.60;99.90
26703;DHT22;14316;51.074;3.704;2023-11-21T04:49:00;9.70;99.90
26703;DHT22;14316;51.074;3.704;2023-11-21T04:51:26;9.70;99.90
26703;DHT22;14316;51.074;3.704;2023-11-21T04:53:53;9.60;99.90
26703;DHT22;14316;51.074;3.704;2023-11-21T04:56:18;9.50;99.90
26703;DHT22;14316;51.074;3.704;2023-11-21T04:58:45;9.60;99.90
26703;DHT22;14316;51.074;3.704;2023-11-21T05:01:11;9.50;99.90
26703;DHT22;14316;51.074;3.704;2023-11-21T05:03:37;9.50;99.90
26703;DHT22;14316;51.074;3.704;2023-11-21T05:06:04;9.50;99.90
26703;DHT22;14316;51.074;3.704;2023-11-21T05:08:30;9.50;99.90
26703;DHT22;14316;51.074;3.704;2023-11-21T05:10:57;9.40;99.90
26703;DHT22;14316;51.074;3.704;2023-11-21T05:13:23;9.40;99.90
26703;DHT22;14316;51.074;3.704;2023-11-21T05:15:54;9.50;99.90
26703;DHT22;14316;51.074;3.704;2023-11-21T05:18:20;9.60;99.90
26703;DHT22;14316;51.074;3.704;2023-11-21T05:20:46;9.70;99.90
26703;DHT22;14316;51.074;3.704;2023-11-21T05:23:12;9.70;99.90
26703;DHT22;14316;51.074;3.704;2023-11-21T05:25:38;9.80;99.90
26703;DHT22;14316;51.074;3.704;2023-11-21T05:28:04;9.80;99.90
26703;DHT22;14316;51.074;3.704;2023-11-21T05:30:32;9.70;99.90
26703;DHT22;14316;51.074;3.704;2023-11-21T05:32:58;9.70;99.90
26703;DHT22;14316;51.074;3.704;2023-11-21T05:35:24;9.70;99.90
26703;DHT22;14316;51.074;3.704;2023-11-21T05:37:49;9.80;99.90
26703;DHT22;14316;51.074;3.704;2023-11-21T05:40:15;9.80;99.90
26703;DHT22;14316;51.074;3.704;2023-11-21T05:42:41;9.90;99.90
26703;DHT22;14316;51.074;3.704;2023-11-21T05:45:08;9.90;99.90
26703;DHT22;14316;51.074;3.704;2023-11-21T05:47:41;9.80;99.90
26703;DHT22;14316;51.074;3.704;2023-11-21T05:50:09;9.80;99.90
26703;DHT22;14316;51.074;3.704;2023-11-21T05:52:41;10.00;99.90
26703;DHT22;14316;51.074;3.704;2023-11-21T05:55:08;10.00;99.90
26703;DHT22;14316;51.074;3.704;2023-11-21T05:57:35;10.10;99.90
26703;DHT22;14316;51.074;3.704;2023-11-21T06:02:38;9.90;99.90
26703;DHT22;14316;51.074;3.704;2023-11-21T06:05:06;9.90;99.90
26703;DHT22;14316;51.074;3.704;2023-11-21T06:07:32;9.90;99.90
26703;DHT22;14316;51.074;3.704;2023-11-21T06:09:57;9.90;99.90
26703;DHT22;14316;51.074;3.704;2023-11-21T06:12:23;9.90;99.90
26703;DHT22;14316;51.074;3.704;2023-11-21T06:14:49;9.90;99.90
26703;DHT22;14316;51.074;3.704;2023-11-21T06:17:14;9.80;99.90
26703;DHT22;14316;51.074;3.704;2023-11-21T06:19:40;9.80;99.90
26703;DHT22;14316;51.074;3.704;2023-11-21T06:22:06;9.80;99.90
26703;DHT22;14316;51.074;3.704;2023-11-21T06:24:31;9.70;99.90
26703;DHT22;14316;51.074;3.704;2023-11-21T06:26:57;9.70;99.90
26703;DHT22;14316;51.074;3.704;2023-11-21T06:29:26;9.80;99.90
26703;DHT22;14316;51.074;3.704;2023-11-21T06:31:52;9.90;99.90
26703;DHT22;14316;51.074;3.704;2023-11-21T06:34:20;9.90;99.90
26703;DHT22;14316;51.074;3.704;2023-11-21T06:36:47;9.90;99.90
26703;DHT22;14316;51.074;3.704;2023-11-21T06:39:12;9.90;99.90
26703;DHT22;14316;51.074;3.704;2023-11-21T06:41:40;9.90;99.90
26703;DHT22;14316;51.074;3.704;2023-11-21T06:44:06;10.00;99.90
26703;DHT22;14316;51.074;3.704;2023-11-21T06:46:34;10.10;99.90
26703;DHT22;14316;51.074;3.704;2023-11-21T06:49:00;10.00;99.90
26703;DHT22;14316;51.074;3.704;2023-11-21T06:51:25;10.00;99.90
26703;DHT22;14316;51.074;3.704;2023-11-21T06:53:51;9.90;99.90
26703;DHT22;14316;51.074;3.704;2023-11-21T06:56:18;10.00;99.90
26703;DHT22;14316;51.074;3.704;2023-11-21T06:58:45;10.10;99.90
26703;DHT22;14316;51.074;3.704;2023-11-21T07:01:13;10.10;99.90
26703;DHT22;14316;51.074;3.704;2023-11-21T07:03:39;10.00;99.90
26703;DHT22;14316;51.074;3.704;2023-11-21T07:06:05;10.10;99.90
26703;DHT22;14316;51.074;3.704;2023-11-21T07:08:31;10.00;99.90
26703;DHT22;14316;51.074;3.704;2023-11-21T07:11:01;10.00;99.90
26703;DHT22;14316;51.074;3.704;2023-11-21T07:13:28;10.00;99.90
26703;DHT22;14316;51.074;3.704;2023-11-21T07:15:54;10.10;99.90
26703;DHT22;14316;51.074;3.704;2023-11-21T07:18:20;10.10;99.90
26703;DHT22;14316;51.074;3.704;2023-11-21T07:20:46;10.00;99.90
26703;DHT22;14316;51.074;3.704;2023-11-21T07:23:12;10.00;99.90
26703;DHT22;14316;51.074;3.704;2023-11-21T07:25:38;10.20;99.90
26703;DHT22;14316;51.074;3.704;2023-11-21T07:28:04;10.30;99.90
26703;DHT22;14316;51.074;3.704;2023-11-21T07:30:31;10.50;99.90
26703;DHT22;14316;51.074;3.704;2023-11-21T07:32:57;10.50;99.90
26703;DHT22;14316;51.074;3.704;2023-11-21T07:35:22;10.50;99.90
26703;DHT22;14316;51.074;3.704;2023-11-21T07:37:48;10.70;99.90
26703;DHT22;14316;51.074;3.704;2023-11-21T07:40:15;10.70;99.90
26703;DHT22;14316;51.074;3.704;2023-11-21T07:42:41;10.80;99.90
26703;DHT22;14316;51.074;3.704;2023-11-21T07:45:08;11.00;99.90
26703;DHT22;14316;51.074;3.704;2023-11-21T07:47:34;11.00;99.90
26703;DHT22;14316;51.074;3.704;2023-11-21T07:50:04;10.80;99.90
26703;DHT22;14316;51.074;3.704;2023-11-21T07:52:30;10.70;99.90
26703;DHT22;14316;51.074;3.704;2023-11-21T07:54:56;10.60;99.90
26703;DHT22;14316;51.074;3.704;2023-11-21T07:57:22;10.50;99.90
26703;DHT22;14316;51.074;3.704;2023-11-21T07:59:48;10.50;99.90
26703;DHT22;14316;51.074;3.704;2023-11-21T08:02:14;10.60;99.90
26703;DHT22;14316;51.074;3.704;2023-11-21T08:04:42;10.70;99.90
26703;DHT22;14316;51.074;3.704;2023-11-21T08:07:08;10.60;99.90
26703;DHT22;14316;51.074;3.704;2023-11-21T08:09:35;10.60;99.90
26703;DHT22;14316;51.074;3.704;2023-11-21T08:12:01;10.60;99.90
26703;DHT22;14316;51.074;3.704;2023-11-21T08:14:28;10.60;99.90
26703;DHT22;14316;51.074;3.704;2023-11-21T08:16:54;10.60;99.90
26703;DHT22;14316;51.074;3.704;2023-11-21T08:19:23;10.60;99.90
26703;DHT22;14316;51.074;3.704;2023-11-21T08:21:50;10.60;99.90
26703;DHT22;14316;51.074;3.704;2023-11-21T08:24:16;10.60;99.90
26703;DHT22;14316;51.074;3.704;2023-11-21T08:26:42;10.50;99.90
26703;DHT22;14316;51.074;3.704;2023-11-21T08:29:08;10.50;99.90
26703;DHT22;14316;51.074;3.704;2023-11-21T08:31:34;10.40;99.90
26703;DHT22;14316;51.074;3.704;2023-11-21T08:34:01;10.40;99.90
26703;DHT22;14316;51.074;3.704;2023-11-21T08:36:27;10.40;99.90
26703;DHT22;14316;51.074;3.704;2023-11-21T08:38:53;10.50;99.90
26703;DHT22;14316;51.074;3.704;2023-11-21T08:41:19;10.50;99.90
26703;DHT22;14316;51.074;3.704;2023-11-21T08:43:50;10.50;99.90
26703;DHT22;14316;51.074;3.704;2023-11-21T08:46:16;10.60;99.90
26703;DHT22;14316;51.074;3.704;2023-11-21T08:48:45;10.80;99.90
26703;DHT22;14316;51.074;3.704;2023-11-21T08:51:11;10.90;99.90
26703;DHT22;14316;51.074;3.704;2023-11-21T08:53:38;11.00;99.90
26703;DHT22;14316;51.074;3.704;2023-11-21T08:56:04;11.10;99.90
26703;DHT22;14316;51.074;3.704;2023-11-21T08:58:31;11.20;99.90
26703;DHT22;14316;51.074;3.704;2023-11-21T09:00:58;11.50;99.90
26703;DHT22;14316;51.074;3.704;2023-11-21T09:03:24;11.50;99.90
26703;DHT22;14316;51.074;3.704;2023-11-21T09:05:50;11.70;99.90
26703;DHT22;14316;51.074;3.704;2023-11-21T09:08:16;11.80;99.90
26703;DHT22;14316;51.074;3.704;2023-11-21T09:10:42;11.90;99.90
26703;DHT22;14316;51.074;3.704;2023-11-21T09:13:10;12.00;99.90
26703;DHT22;14316;51.074;3.704;2023-11-21T09:15:38;12.10;99.90
26703;DHT22;14316;51.074;3.704;2023-11-21T09:18:04;12.20;99.90
26703;DHT22;14316;51.074;3.704;2023-11-21T09:20:30;12.50;99.90
26703;DHT22;14316;51.074;3.704;2023-11-21T09:22:56;12.80;99.90
26703;DHT22;14316;51.074;3.704;2023-11-21T09:25:22;13.00;99.90
26703;DHT22;14316;51.074;3.704;2023-11-21T09:27:48;13.10;99.90
26703;DHT22;14316;51.074;3.704;2023-11-21T09:30:15;13.10;99.90
26703;DHT22;14316;51.074;3.704;2023-11-21T09:32:41;13.00;99.90
26703;DHT22;14316;51.074;3.704;2023-11-21T09:35:07;13.00;99.90
26703;DHT22;14316;51.074;3.704;2023-11-21T09:37:35;13.00;99.90
26703;DHT22;14316;51.074;3.704;2023-11-21T09:40:04;12.90;99.90
26703;DHT22;14316;51.074;3.704;2023-11-21T09:42:43;12.80;99.90
26703;DHT22;14316;51.074;3.704;2023-11-21T09:45:21;12.70;99.90
26703;DHT22;14316;51.074;3.704;2023-11-21T09:47:50;12.80;99.90
26703;DHT22;14316;51.074;3.704;2023-11-21T09:50:18;12.70;99.90
26703;DHT22;14316;51.074;3.704;2023-11-21T09:55:27;12.70;99.90
26703;DHT22;14316;51.074;3.704;2023-11-21T09:57:56;12.80;99.90
26703;DHT22;14316;51.074;3.704;2023-11-21T10:00:23;12.70;99.90
26703;DHT22;14316;51.074;3.704;2023-11-21T10:02:53;12.90;99.90
26703;DHT22;14316;51.074;3.704;2023-11-21T10:05:19;13.00;99.90
26703;DHT22;14316;51.074;3.704;2023-11-21T10:07:46;13.10;99.90
26703;DHT22;14316;51.074;3.704;2023-11-21T10:10:14;13.20;99.90
26703;DHT22;14316;51.074;3.704;2023-11-21T10:12:43;13.20;99.90
26703;DHT22;14316;51.074;3.704;2023-11-21T10:15:11;13.30;99.90
26703;DHT22;14316;51.074;3.704;2023-11-21T10:17:41;13.20;99.90
26703;DHT22;14316;51.074;3.704;2023-11-21T10:20:14;13.30;99.90
26703;DHT22;14316;51.074;3.704;2023-11-21T10:22:42;13.30;99.90
26703;DHT22;14316;51.074;3.704;2023-11-21T10:25:09;13.30;99.90
26703;DHT22;14316;51.074;3.704;2023-11-21T10:27:37;13.30;99.90
26703;DHT22;14316;51.074;3.704;2023-11-21T10:30:05;13.30;99.90
26703;DHT22;14316;51.074;3.704;2023-11-21T10:32:31;13.20;99.90
26703;DHT22;14316;51.074;3.704;2023-11-21T10:35:01;13.10;99.90
26703;DHT22;14316;51.074;3.704;2023-11-21T10:37:32;13.10;99.90
26703;DHT22;14316;51.074;3.704;2023-11-21T10:39:59;13.20;99.90
26703;DHT22;14316;51.074;3.704;2023-11-21T10:42:25;13.40;99.90
26703;DHT22;14316;51.074;3.704;2023-11-21T10:44:53;13.60;99.90
26703;DHT22;14316;51.074;3.704;2023-11-21T10:47:19;13.80;99.90
26703;DHT22;14316;51.074;3.704;2023-11-21T10:49:49;13.90;99.90
26703;DHT22;14316;51.074;3.704;2023-11-21T10:52:15;13.80;99.90
26703;DHT22;14316;51.074;3.704;2023-11-21T10:54:43;13.70;99.90
26703;DHT22;14316;51.074;3.704;2023-11-21T10:57:10;13.50;99.90
26703;DHT22;14316;51.074;3.704;2023-11-21T10:59:36;13.40;99.90
26703;DHT22;14316;51.074;3.704;2023-11-21T11:04:47;13.20;99.90
26703;DHT22;14316;51.074;3.704;2023-11-21T11:07:15;13.10;99.90
26703;DHT22;14316;51.074;3.704;2023-11-21T11:09:44;13.00;99.90
26703;DHT22;14316;51.074;3.704;2023-11-21T11:12:11;12.90;99.90
26703;DHT22;14316;51.074;3.704;2023-11-21T11:14:41;12.80;99.90
26703;DHT22;14316;51.074;3.704;2023-11-21T11:17:08;12.70;99.90
26703;DHT22;14316;51.074;3.704;2023-11-21T11:19:35;12.80;99.90
26703;DHT22;14316;51.074;3.704;2023-11-21T11:36:13;12.50;99.90
26703;DHT22;14316;51.074;3.704;2023-11-21T11:38:46;12.60;99.90
26703;DHT22;14316;51.074;3.704;2023-11-21T11:41:12;12.50;99.90
26703;DHT22;14316;51.074;3.704;2023-11-21T11:43:38;12.40;99.90
26703;DHT22;14316;51.074;3.704;2023-11-21T11:46:11;12.30;99.90
26703;DHT22;14316;51.074;3.704;2023-11-21T11:48:40;12.40;99.90
26703;DHT22;14316;51.074;3.704;2023-11-21T11:51:10;12.60;99.90
26703;DHT22;14316;51.074;3.704;2023-11-21T11:53:44;12.60;99.90
26703;DHT22;14316;51.074;3.704;2023-11-21T11:58:49;13.50;99.90
26703;DHT22;14316;51.074;3.704;2023-11-21T12:01:20;14.40;99.90
26703;DHT22;14316;51.074;3.704;2023-11-21T12:04:26;14.60;99.90
26703;DHT22;14316;51.074;3.704;2023-11-21T12:07:02;14.30;99.90
26703;DHT22;14316;51.074;3.704;2023-11-21T12:09:29;13.80;99.90
26703;DHT22;14316;51.074;3.704;2023-11-21T12:11:57;13.50;99.90
26703;DHT22;14316;51.074;3.704;2023-11-21T12:14:23;13.40;99.90
26703;DHT22;14316;51.074;3.704;2023-11-21T12:16:49;13.10;99.90
26703;DHT22;14316;51.074;3.704;2023-11-21T12:19:15;12.90;99.90
26703;DHT22;14316;51.074;3.704;2023-11-21T12:21:41;12.70;99.90
26703;DHT22;14316;51.074;3.704;2023-11-21T12:24:08;12.60;99.90
26703;DHT22;14316;51.074;3.704;2023-11-21T12:26:40;12.50;99.90
26703;DHT22;14316;51.074;3.704;2023-11-21T12:29:06;12.40;99.90
26703;DHT22;14316;51.074;3.704;2023-11-21T12:31:34;12.30;99.90
26703;DHT22;14316;51.074;3.704;2023-11-21T12:34:03;12.30;99.90
26703;DHT22;14316;51.074;3.704;2023-11-21T12:36:30;12.20;99.90
26703;DHT22;14316;51.074;3.704;2023-11-21T12:38:56;12.20;99.90
26703;DHT22;14316;51.074;3.704;2023-11-21T12:41:22;12.20;99.90
26703;DHT22;14316;51.074;3.704;2023-11-21T12:43:48;12.10;99.90
26703;DHT22;14316;51.074;3.704;2023-11-21T12:46:15;12.20;99.90
26703;DHT22;14316;51.074;3.704;2023-11-21T12:48:45;12.10;99.90
26703;DHT22;14316;51.074;3.704;2023-11-21T12:51:14;12.10;99.90
26703;DHT22;14316;51.074;3.704;2023-11-21T12:53:42;12.00;99.90
26703;DHT22;14316;51.074;3.704;2023-11-21T12:56:12;12.00;99.90
26703;DHT22;14316;51.074;3.704;2023-11-21T12:58:39;12.00;99.90
26703;DHT22;14316;51.074;3.704;2023-11-21T13:01:08;12.00;99.90
26703;DHT22;14316;51.074;3.704;2023-11-21T13:03:38;12.00;99.90
26703;DHT22;14316;51.074;3.704;2023-11-21T13:06:06;12.00;99.90
26703;DHT22;14316;51.074;3.704;2023-11-21T13:08:33;12.00;99.90
26703;DHT22;14316;51.074;3.704;2023-11-21T13:10:59;12.00;99.90
26703;DHT22;14316;51.074;3.704;2023-11-21T13:13:28;12.10;99.90
26703;DHT22;14316;51.074;3.704;2023-11-21T13:15:59;12.20;99.90
26703;DHT22;14316;51.074;3.704;2023-11-21T13:18:34;12.30;99.90
26703;DHT22;14316;51.074;3.704;2023-11-21T13:21:03;12.60;99.90
26703;DHT22;14316;51.074;3.704;2023-11-21T13:23:35;12.80;99.90
26703;DHT22;14316;51.074;3.704;2023-11-21T13:26:06;13.10;99.90
26703;DHT22;14316;51.074;3.704;2023-11-21T13:28:33;13.20;99.90
26703;DHT22;14316;51.074;3.704;2023-11-21T13:31:03;13.60;99.90
26703;DHT22;14316;51.074;3.704;2023-11-21T13:33:38;14.20;99.90
26703;DHT22;14316;51.074;3.704;2023-11-21T13:36:08;14.20;99.90
26703;DHT22;14316;51.074;3.704;2023-11-21T13:38:35;14.00;99.90
26703;DHT22;14316;51.074;3.704;2023-11-21T13:41:01;13.70;99.90
26703;DHT22;14316;51.074;3.704;2023-11-21T13:43:28;13.60;99.90
26703;DHT22;14316;51.074;3.704;2023-11-21T13:45:54;13.30;99.90
26703;DHT22;14316;51.074;3.704;2023-11-21T13:48:38;13.00;99.90
26703;DHT22;14316;51.074;3.704;2023-11-21T13:51:11;12.80;99.90
26703;DHT22;14316;51.074;3.704;2023-11-21T13:53:46;12.60;99.90
26703;DHT22;14316;51.074;3.704;2023-11-21T13:56:15;12.60;99.90
26703;DHT22;14316;51.074;3.704;2023-11-21T13:58:45;12.50;99.90
26703;DHT22;14316;51.074;3.704;2023-11-21T14:01:23;12.50;99.90
26703;DHT22;14316;51.074;3.704;2023-11-21T14:03:59;12.40;99.90
26703;DHT22;14316;51.074;3.704;2023-11-21T14:06:50;12.50;99.90
26703;DHT22;14316;51.074;3.704;2023-11-21T14:09:20;12.50;99.90
26703;DHT22;14316;51.074;3.704;2023-11-21T14:14:22;12.40;99.90
26703;DHT22;14316;51.074;3.704;2023-11-21T14:16:51;12.40;99.90
26703;DHT22;14316;51.074;3.704;2023-11-21T14:19:17;12.20;99.90
26703;DHT22;14316;51.074;3.704;2023-11-21T14:21:44;12.20;99.90
26703;DHT22;14316;51.074;3.704;2023-11-21T14:24:14;12.20;99.90
26703;DHT22;14316;51.074;3.704;2023-11-21T14:26:42;12.10;99.90
26703;DHT22;14316;51.074;3.704;2023-11-21T14:29:14;12.10;99.90
26703;DHT22;14316;51.074;3.704;2023-11-21T14:31:43;12.20;99.90
26703;DHT22;14316;51.074;3.704;2023-11-21T14:34:09;12.10;99.90
26703;DHT22;14316;51.074;3.704;2023-11-21T14:36:37;12.10;99.90
26703;DHT22;14316;51.074;3.704;2023-11-21T14:39:05;12.10;99.90
26703;DHT22;14316;51.074;3.704;2023-11-21T14:41:35;12.00;99.90
26703;DHT22;14316;51.074;3.704;2023-11-21T14:44:02;12.00;99.90
26703;DHT22;14316;51.074;3.704;2023-11-21T14:46:30;12.00;99.90
26703;DHT22;14316;51.074;3.704;2023-11-21T14:48:56;12.00;99.90
26703;DHT22;14316;51.074;3.704;2023-11-21T14:51:28;12.00;99.90
26703;DHT22;14316;51.074;3.704;2023-11-21T14:54:19;11.90;99.90
26703;DHT22;14316;51.074;3.704;2023-11-21T14:57:00;11.90;99.90
26703;DHT22;14316;51.074;3.704;2023-11-21T14:59:26;11.80;99.90
26703;DHT22;14316;51.074;3.704;2023-11-21T15:01:52;11.90;99.90
26703;DHT22;14316;51.074;3.704;2023-11-21T15:04:22;11.90;99.90
26703;DHT22;14316;51.074;3.704;2023-11-21T15:07:01;11.90;99.90
26703;DHT22;14316;51.074;3.704;2023-11-21T15:09:28;11.80;99.90
26703;DHT22;14316;51.074;3.704;2023-11-21T15:11:58;11.80;99.90
26703;DHT22;14316;51.074;3.704;2023-11-21T15:14:32;11.70;99.90
26703;DHT22;14316;51.074;3.704;2023-11-21T15:17:01;11.70;99.90
26703;DHT22;14316;51.074;3.704;2023-11-21T15:19:28;11.60;99.90
26703;DHT22;14316;51.074;3.704;2023-11-21T15:21:57;11.70;99.90
26703;DHT22;14316;51.074;3.704;2023-11-21T15:24:24;11.60;99.90
26703;DHT22;14316;51.074;3.704;2023-11-21T15:26:50;11.60;99.90
26703;DHT22;14316;51.074;3.704;2023-11-21T15:29:16;11.60;99.90
26703;DHT22;14316;51.074;3.704;2023-11-21T15:31:46;11.60;99.90
26703;DHT22;14316;51.074;3.704;2023-11-21T15:34:15;11.50;99.90
26703;DHT22;14316;51.074;3.704;2023-11-21T15:36:41;11.50;99.90
26703;DHT22;14316;51.074;3.704;2023-11-21T15:39:06;11.40;99.90
26703;DHT22;14316;51.074;3.704;2023-11-21T15:41:37;11.40;99.90
26703;DHT22;14316;51.074;3.704;2023-11-21T15:44:05;11.40;99.90
26703;DHT22;14316;51.074;3.704;2023-11-21T15:46:34;11.40;99.90
26703;DHT22;14316;51.074;3.704;2023-11-21T15:49:01;11.40;99.90
26703;DHT22;14316;51.074;3.704;2023-11-21T15:51:29;11.40;99.90
26703;DHT22;14316;51.074;3.704;2023-11-21T15:53:55;11.50;99.90
26703;DHT22;14316;51.074;3.704;2023-11-21T15:56:21;11.40;99.90
26703;DHT22;14316;51.074;3.704;2023-11-21T15:58:48;11.40;99.90
26703;DHT22;14316;51.074;3.704;2023-11-21T16:01:14;11.40;99.90
26703;DHT22;14316;51.074;3.704;2023-11-21T16:03:40;11.40;99.90
26703;DHT22;14316;51.074;3.704;2023-11-21T16:06:07;11.40;99.90